createdAt,value
2023-01-28T00:00:30.980Z,100579.59
2023-01-28T00:01:33.122Z,100589.03
2023-01-28T00:02:36.604Z,100583.88
2023-01-28T00:03:40.351Z,100589.00
2023-01-28T00:04:42.263Z,100585.59
2023-01-28T00:05:43.930Z,100586.44
2023-01-28T00:06:45.802Z,100576.09
2023-01-28T00:07:50.030Z,100577.84
2023-01-28T00:08:51.948Z,100577.81
2023-01-28T00:09:54.039Z,100575.28
2023-01-28T00:10:58.995Z,100574.41
2023-01-28T00:12:00.772Z,100572.69
2023-01-28T00:13:02.511Z,100572.69
2023-01-28T00:14:07.378Z,100578.72
2023-01-28T00:15:10.962Z,100573.53
2023-01-28T00:16:12.888Z,100574.41
2023-01-28T00:17:15.472Z,100571.81
2023-01-28T00:18:17.374Z,100575.22
2023-01-28T00:19:19.464Z,100586.38
2023-01-28T00:20:21.275Z,100580.38
2023-01-28T00:21:22.955Z,100580.34
2023-01-28T00:22:24.766Z,100546.72
2023-01-28T00:23:28.835Z,100582.97
2023-01-28T00:24:31.201Z,100590.69
2023-01-28T00:25:32.826Z,100588.13
2023-01-28T00:26:34.623Z,100583.81
2023-01-28T00:27:36.364Z,100586.41
2023-01-28T00:28:38.348Z,100591.53
2023-01-28T00:29:40.178Z,100587.25
2023-01-28T00:30:41.962Z,100586.38
2023-01-28T00:31:43.835Z,100577.81
2023-01-28T00:32:45.644Z,100583.81
2023-01-28T00:33:49.462Z,100590.69
2023-01-28T00:34:51.416Z,100588.09
2023-01-28T00:36:01.081Z,100588.13
2023-01-28T00:37:02.885Z,100588.13
2023-01-28T00:38:05.040Z,100591.59
2023-01-28T00:39:06.764Z,100595.03
2023-01-28T00:40:10.072Z,100588.16
2023-01-28T00:41:14.460Z,100595.91
2023-01-28T00:42:16.690Z,100589.00
2023-01-28T00:43:18.564Z,100588.16
2023-01-28T00:44:20.917Z,100593.31
2023-01-28T00:45:23.672Z,100589.00
2023-01-28T00:46:27.529Z,100583.84
2023-01-28T00:47:29.191Z,100583.00
2023-01-28T00:48:31.023Z,100582.13
2023-01-28T00:49:32.694Z,100584.72
2023-01-28T00:50:34.360Z,100586.41
2023-01-28T00:51:36.167Z,100580.38
2023-01-28T00:52:37.889Z,100590.75
2023-01-28T00:53:40.669Z,100592.44
2023-01-28T00:54:42.636Z,100588.13
2023-01-28T00:55:44.300Z,100614.78
2023-01-28T00:56:46.335Z,100595.88
2023-01-28T00:57:48.905Z,100537.28
2023-01-28T00:58:51.686Z,100591.56
2023-01-28T00:59:53.488Z,100597.63
2023-01-28T01:00:55.317Z,100595.03
2023-01-28T01:02:12.369Z,100596.75
2023-01-28T01:03:14.529Z,100595.03
2023-01-28T01:04:26.440Z,100588.16
2023-01-28T01:05:29.736Z,100591.59
2023-01-28T01:06:39.955Z,100570.03
2023-01-28T01:07:41.902Z,100595.00
2023-01-28T01:08:51.130Z,100580.38
2023-01-28T01:09:52.746Z,100588.13
2023-01-28T01:10:59.054Z,100593.28
2023-01-28T01:12:00.954Z,100593.25
2023-01-28T01:13:02.753Z,100601.84
2023-01-28T01:14:07.169Z,100598.41
2023-01-28T01:15:11.172Z,100593.25
2023-01-28T01:16:18.121Z,100594.13
2023-01-28T01:17:21.791Z,100592.38
2023-01-28T01:18:23.527Z,100592.44
2023-01-28T01:19:26.656Z,100598.44
2023-01-28T01:20:33.423Z,100602.75
2023-01-28T01:21:35.217Z,100602.75
2023-01-28T01:22:37.319Z,100603.63
2023-01-28T01:23:39.454Z,100598.47
2023-01-28T01:24:41.572Z,100602.75
2023-01-28T01:25:43.364Z,100595.88
2023-01-28T01:26:45.144Z,100592.44
2023-01-28T01:27:49.930Z,100596.72
2023-01-28T01:28:52.740Z,100596.69
2023-01-28T01:29:55.585Z,100592.44
2023-01-28T01:31:13.941Z,100593.31
2023-01-28T01:32:15.730Z,100593.31
2023-01-28T01:33:18.586Z,100614.81
2023-01-28T01:34:20.650Z,100583.00
2023-01-28T01:35:22.426Z,100592.47
2023-01-28T01:36:24.148Z,100594.16
2023-01-28T01:37:26.572Z,100593.31
2023-01-28T01:38:29.492Z,100584.72
2023-01-28T01:39:31.169Z,100584.72
2023-01-28T01:40:32.859Z,100586.41
2023-01-28T01:41:34.604Z,100587.28
2023-01-28T01:42:36.458Z,100585.56
2023-01-28T01:44:05.630Z,100581.25
2023-01-28T01:45:15.106Z,100593.31
2023-01-28T01:46:26.113Z,100585.56
2023-01-28T01:47:31.271Z,100593.28
2023-01-28T01:48:35.474Z,100584.69
2023-01-28T01:49:37.372Z,100588.13
2023-01-28T01:50:40.924Z,100591.56
2023-01-28T01:51:44.218Z,100591.53
2023-01-28T01:52:49.107Z,100594.13
2023-01-28T01:53:54.640Z,100593.28
2023-01-28T01:54:59.826Z,100593.28
2023-01-28T01:56:05.118Z,100569.09
2023-01-28T01:57:10.569Z,100595.84
2023-01-28T01:58:16.091Z,100602.75
2023-01-28T01:59:27.289Z,100588.13
2023-01-28T02:00:29.133Z,100589.84
2023-01-28T02:01:32.685Z,100589.00
2023-01-28T02:02:45.448Z,100588.13
2023-01-28T02:03:56.928Z,100586.41
2023-01-28T02:04:58.657Z,100589.00
2023-01-28T02:06:00.667Z,100589.00
2023-01-28T02:07:02.745Z,100586.41
2023-01-28T02:08:23.473Z,100587.28
2023-01-28T02:09:27.480Z,100579.56
2023-01-28T02:10:29.471Z,100560.56
2023-01-28T02:11:34.451Z,100582.09
2023-01-28T02:12:47.558Z,100588.13
2023-01-28T02:13:52.464Z,100589.84
2023-01-28T02:15:01.683Z,100586.41
2023-01-28T02:16:04.829Z,100583.81
2023-01-28T02:17:07.299Z,100588.13
2023-01-28T02:18:09.871Z,100590.75
2023-01-28T02:19:12.661Z,100587.28
2023-01-28T02:20:36.570Z,100587.28
2023-01-28T02:21:41.409Z,100585.56
2023-01-28T02:23:05.058Z,100584.69
2023-01-28T02:24:40.719Z,100595.88
2023-01-28T02:26:19.569Z,100599.28
2023-01-28T02:27:36.710Z,100595.00
2023-01-28T02:28:57.964Z,100598.44
2023-01-28T02:30:03.773Z,100596.72
2023-01-28T02:31:27.745Z,100600.16
2023-01-28T02:32:46.275Z,100595.84
2023-01-28T02:34:00.273Z,100588.06
2023-01-28T02:35:12.505Z,100604.44
2023-01-28T02:36:24.452Z,100600.97
2023-01-28T02:37:41.489Z,100600.97
2023-01-28T02:38:48.749Z,100615.59
2023-01-28T02:40:00.094Z,100597.53
2023-01-28T02:41:07.090Z,100604.44
2023-01-28T02:42:18.375Z,100612.16
2023-01-28T02:43:35.348Z,100603.56
2023-01-28T02:44:37.074Z,100608.75
2023-01-28T02:45:57.361Z,100604.44
2023-01-28T02:47:18.010Z,100613.91
2023-01-28T02:48:23.176Z,100606.16
2023-01-28T02:49:47.130Z,100606.22
2023-01-28T02:51:01.021Z,100607.94
2023-01-28T02:52:49.109Z,100612.22
2023-01-28T02:54:00.381Z,100614.78
2023-01-28T02:55:14.422Z,100602.78
2023-01-28T02:56:29.459Z,100630.28
2023-01-28T02:58:18.443Z,100622.56
2023-01-28T02:59:45.167Z,100605.34
2023-01-28T03:00:56.143Z,100606.19
2023-01-28T03:02:09.107Z,100611.34
2023-01-28T03:03:38.634Z,100601.00
2023-01-28T03:05:02.011Z,100607.94
2023-01-28T03:06:10.020Z,100610.50
2023-01-28T03:07:15.000Z,100603.59
2023-01-28T03:08:36.248Z,100607.03
2023-01-28T03:09:42.369Z,100599.28
2023-01-28T03:10:44.130Z,100604.44
2023-01-28T03:12:18.642Z,100607.03
2023-01-28T03:13:38.914Z,100598.44
2023-01-28T03:15:01.257Z,100608.75
2023-01-28T03:16:22.399Z,100613.06
2023-01-28T03:18:10.260Z,100611.31
2023-01-28T03:19:32.342Z,100604.47
2023-01-28T03:21:15.728Z,100602.75
2023-01-28T03:22:36.555Z,100605.34
2023-01-28T03:24:06.803Z,100607.06
2023-01-28T03:25:32.322Z,100604.47
2023-01-28T03:27:02.452Z,100613.09
2023-01-28T03:28:28.080Z,100618.28
2023-01-28T03:29:50.733Z,100611.38
2023-01-28T03:31:36.383Z,100616.56
2023-01-28T03:32:59.050Z,100614.81
2023-01-28T03:34:20.963Z,100618.25
2023-01-28T03:35:43.048Z,100630.31
2023-01-28T03:36:56.968Z,100616.53
2023-01-28T03:38:00.375Z,100620.00
2023-01-28T03:39:02.252Z,100614.84
2023-01-28T03:40:06.947Z,100613.09
2023-01-28T03:41:11.228Z,100612.25
2023-01-28T03:42:14.987Z,100615.72
2023-01-28T03:43:16.673Z,100625.19
2023-01-28T03:44:36.895Z,100619.16
2023-01-28T03:45:39.451Z,100623.47
2023-01-28T03:46:42.654Z,100622.63
2023-01-28T03:47:44.820Z,100620.81
2023-01-28T03:48:46.475Z,100630.34
2023-01-28T03:49:50.725Z,100616.59
2023-01-28T03:50:54.741Z,100626.94
2023-01-28T03:51:56.531Z,100642.44
2023-01-28T03:53:14.909Z,100627.84
2023-01-28T03:54:17.983Z,100625.25
2023-01-28T03:55:19.963Z,100627.78
2023-01-28T03:56:24.587Z,100622.63
2023-01-28T03:57:27.802Z,100649.28
2023-01-28T03:58:56.645Z,100631.22
2023-01-28T03:59:58.554Z,100627.78
2023-01-28T04:01:00.223Z,100581.19
2023-01-28T04:02:03.495Z,100627.75
2023-01-28T04:03:16.415Z,100632.03
2023-01-28T04:04:24.562Z,100589.81
2023-01-28T04:05:26.535Z,100633.75
2023-01-28T04:06:29.026Z,100641.50
2023-01-28T04:07:31.363Z,100628.63
2023-01-28T04:08:34.045Z,100632.91
2023-01-28T04:09:36.148Z,100631.22
2023-01-28T04:10:39.731Z,100626.88
2023-01-28T04:11:41.552Z,100621.69
2023-01-28T04:12:44.295Z,100604.47
2023-01-28T04:13:49.106Z,100636.34
2023-01-28T04:14:51.033Z,100631.19
2023-01-28T04:15:52.946Z,100623.44
2023-01-28T04:16:57.785Z,100629.47
2023-01-28T04:18:00.976Z,100624.28
2023-01-28T04:19:03.045Z,100629.44
2023-01-28T04:20:06.674Z,100632.03
2023-01-28T04:21:09.146Z,100632.03
2023-01-28T04:22:12.180Z,100636.34
2023-01-28T04:23:13.849Z,100628.56
2023-01-28T04:24:16.803Z,100620.81
2023-01-28T04:25:18.719Z,100642.34
2023-01-28T04:26:20.382Z,100641.47
2023-01-28T04:27:22.115Z,100646.63
2023-01-28T04:28:24.293Z,100640.59
2023-01-28T04:29:26.486Z,100641.47
2023-01-28T04:30:28.628Z,100653.53
2023-01-28T04:31:30.668Z,100644.06
2023-01-28T04:32:32.514Z,100644.06
2023-01-28T04:33:34.217Z,100650.09
2023-01-28T04:34:35.997Z,100657.84
2023-01-28T04:35:37.934Z,100644.06
2023-01-28T04:36:39.983Z,100650.09
2023-01-28T04:37:42.686Z,100653.53
2023-01-28T04:38:47.383Z,100644.03
2023-01-28T04:39:49.121Z,100652.66
2023-01-28T04:40:54.400Z,100656.06
2023-01-28T04:41:56.941Z,100652.63
2023-01-28T04:42:59.081Z,100650.91
2023-01-28T04:44:00.794Z,100641.41
2023-01-28T04:45:02.682Z,100639.69
2023-01-28T04:46:04.551Z,100642.31
2023-01-28T04:47:06.278Z,100644.84
2023-01-28T04:48:07.985Z,100633.66
2023-01-28T04:49:09.735Z,100651.75
2023-01-28T04:50:11.662Z,100650.00
2023-01-28T04:51:13.361Z,100651.75
2023-01-28T04:52:15.461Z,100651.75
2023-01-28T04:53:20.130Z,100656.88
2023-01-28T04:54:22.208Z,100655.16
2023-01-28T04:55:24.808Z,100649.19
2023-01-28T04:56:27.444Z,100645.69
2023-01-28T04:57:29.378Z,100647.44
2023-01-28T04:58:31.230Z,100651.75
2023-01-28T04:59:32.874Z,100646.59
2023-01-28T05:00:35.085Z,100655.19
2023-01-28T05:01:37.090Z,100649.16
2023-01-28T05:02:38.930Z,100644.00
2023-01-28T05:03:40.619Z,100645.72
2023-01-28T05:04:42.472Z,100650.03
2023-01-28T05:05:44.341Z,100655.19
2023-01-28T05:06:46.249Z,100650.88
2023-01-28T05:07:55.691Z,100643.13
2023-01-28T05:08:58.168Z,100634.50
2023-01-28T05:09:59.936Z,100651.75
2023-01-28T05:11:01.625Z,100650.03
2023-01-28T05:12:03.639Z,100653.50
2023-01-28T05:13:05.313Z,100656.06
2023-01-28T05:14:07.158Z,100653.50
2023-01-28T05:15:09.712Z,100655.19
2023-01-28T05:16:12.054Z,100659.50
2023-01-28T05:17:14.115Z,100640.50
2023-01-28T05:18:16.060Z,100661.19
2023-01-28T05:19:17.817Z,100658.63
2023-01-28T05:20:20.148Z,100648.28
2023-01-28T05:21:21.944Z,100663.78
2023-01-28T05:22:23.637Z,100657.78
2023-01-28T05:23:25.355Z,100669.81
2023-01-28T05:24:27.111Z,100658.63
2023-01-28T05:25:29.124Z,100657.78
2023-01-28T05:26:31.081Z,100659.47
2023-01-28T05:27:33.653Z,100655.19
2023-01-28T05:28:35.772Z,100662.94
2023-01-28T05:29:37.610Z,100664.66
2023-01-28T05:30:39.772Z,100670.69
2023-01-28T05:31:41.770Z,100662.97
2023-01-28T05:32:43.754Z,100669.84
2023-01-28T05:33:46.088Z,100687.88
2023-01-28T05:34:47.861Z,100658.66
2023-01-28T05:35:49.830Z,100662.97
2023-01-28T05:36:51.573Z,100644.00
2023-01-28T05:37:53.406Z,100663.81
2023-01-28T05:38:55.161Z,100666.38
2023-01-28T05:39:56.886Z,100662.97
2023-01-28T05:40:58.754Z,100650.00
2023-01-28T05:42:00.412Z,100663.78
2023-01-28T05:43:02.132Z,100669.81
2023-01-28T05:44:03.819Z,100673.28
2023-01-28T05:45:06.020Z,100672.41
2023-01-28T05:46:07.813Z,100671.53
2023-01-28T05:47:09.856Z,100669.84
2023-01-28T05:48:11.811Z,100675.00
2023-01-28T05:49:13.985Z,100675.84
2023-01-28T05:50:16.676Z,100670.66
2023-01-28T05:51:19.135Z,100672.38
2023-01-28T05:52:20.886Z,100677.53
2023-01-28T05:53:22.700Z,100675.81
2023-01-28T05:54:24.624Z,100679.25
2023-01-28T05:55:26.758Z,100678.41
2023-01-28T05:56:28.452Z,100681.00
2023-01-28T05:57:30.225Z,100680.16
2023-01-28T05:58:32.366Z,100681.84
2023-01-28T05:59:34.111Z,100687.88
2023-01-28T06:00:35.934Z,100685.31
2023-01-28T06:01:37.884Z,100688.75
2023-01-28T06:02:39.944Z,100687.88
2023-01-28T06:03:42.769Z,100693.03
2023-01-28T06:04:44.798Z,100691.31
2023-01-28T06:05:46.628Z,100635.28
2023-01-28T06:06:48.484Z,100693.09
2023-01-28T06:07:50.761Z,100691.34
2023-01-28T06:08:53.750Z,100697.34
2023-01-28T06:09:55.580Z,100691.34
2023-01-28T06:10:57.328Z,100695.63
2023-01-28T06:12:00.193Z,100702.53
2023-01-28T06:13:02.547Z,100681.81
2023-01-28T06:14:06.832Z,100699.06
2023-01-28T06:15:09.766Z,100711.13
2023-01-28T06:16:12.670Z,100705.09
2023-01-28T06:17:14.595Z,100705.94
2023-01-28T06:18:17.049Z,100735.19
2023-01-28T06:19:18.860Z,100703.34
2023-01-28T06:20:20.928Z,100708.53
2023-01-28T06:21:22.667Z,100711.97
2023-01-28T06:22:24.590Z,100735.19
2023-01-28T06:23:26.735Z,100711.97
2023-01-28T06:24:28.572Z,100717.13
2023-01-28T06:25:30.368Z,100718.84
2023-01-28T06:26:32.701Z,100726.56
2023-01-28T06:27:34.752Z,100707.66
2023-01-28T06:28:36.409Z,100694.66
2023-01-28T06:29:38.384Z,100719.72
2023-01-28T06:30:40.669Z,100724.91
2023-01-28T06:31:44.280Z,100748.13
2023-01-28T06:32:47.170Z,100711.94
2023-01-28T06:33:50.340Z,100719.72
2023-01-28T06:34:52.571Z,100728.34
2023-01-28T06:35:54.679Z,100725.75
2023-01-28T06:36:56.365Z,100720.56
2023-01-28T06:37:58.543Z,100728.31
2023-01-28T06:39:00.346Z,100724.88
2023-01-28T06:40:03.144Z,100687.75
2023-01-28T06:41:05.069Z,100725.72
2023-01-28T06:42:07.072Z,100730.00
2023-01-28T06:43:08.795Z,100727.41
2023-01-28T06:44:10.512Z,100730.00
2023-01-28T06:45:12.315Z,100735.13
2023-01-28T06:46:14.160Z,100732.53
2023-01-28T06:47:16.181Z,100739.41
2023-01-28T06:48:18.030Z,100730.81
2023-01-28T06:49:20.978Z,100730.81
2023-01-28T06:50:22.781Z,100751.44
2023-01-28T06:51:24.632Z,100725.66
2023-01-28T06:52:26.576Z,100729.09
2023-01-28T06:53:28.591Z,100730.81
2023-01-28T06:54:30.982Z,100671.25
2023-01-28T06:55:32.755Z,100712.69
2023-01-28T06:56:34.826Z,100736.81
2023-01-28T06:57:40.550Z,100735.09
2023-01-28T06:58:42.371Z,100735.94
2023-01-28T06:59:44.364Z,100729.94
2023-01-28T07:00:46.168Z,100729.06
2023-01-28T07:01:47.947Z,100735.06
2023-01-28T07:02:49.757Z,100730.78
2023-01-28T07:03:51.743Z,100732.47
2023-01-28T07:04:53.542Z,100735.06
2023-01-28T07:05:55.837Z,100735.03
2023-01-28T07:06:58.197Z,100735.91
2023-01-28T07:08:02.344Z,100735.06
2023-01-28T07:09:04.159Z,100738.47
2023-01-28T07:10:08.128Z,100736.72
2023-01-28T07:11:09.899Z,100745.34
2023-01-28T07:12:11.882Z,100730.72
2023-01-28T07:13:13.651Z,100733.31
2023-01-28T07:14:15.397Z,100730.78
2023-01-28T07:15:17.527Z,100738.50
2023-01-28T07:16:19.435Z,100740.25
2023-01-28T07:17:21.471Z,100733.38
2023-01-28T07:18:23.669Z,100731.69
2023-01-28T07:19:25.980Z,100745.44
2023-01-28T07:20:28.034Z,100729.97
2023-01-28T07:21:29.995Z,100737.72
2023-01-28T07:22:32.054Z,100742.03
2023-01-28T07:23:33.802Z,100741.16
2023-01-28T07:24:36.077Z,100754.06
2023-01-28T07:25:37.881Z,100745.50
2023-01-28T07:26:39.721Z,100749.81
2023-01-28T07:27:51.217Z,100748.13
2023-01-28T07:28:53.017Z,100720.34
2023-01-28T07:29:54.863Z,100755.00
2023-01-28T07:30:57.669Z,100755.03
2023-01-28T07:31:59.511Z,100761.91
2023-01-28T07:33:01.577Z,100761.91
2023-01-28T07:34:03.354Z,100768.81
2023-01-28T07:35:05.429Z,100759.41
2023-01-28T07:36:07.527Z,100761.13
2023-01-28T07:37:10.041Z,100760.28
2023-01-28T07:38:13.170Z,100760.28
2023-01-28T07:39:15.450Z,100755.09
2023-01-28T07:40:17.630Z,100762.03
2023-01-28T07:41:19.444Z,100762.06
2023-01-28T07:42:21.167Z,100759.44
2023-01-28T07:43:23.019Z,100757.72
2023-01-28T07:44:25.357Z,100769.78
2023-01-28T07:45:28.804Z,100768.09
2023-01-28T07:46:30.539Z,100768.09
2023-01-28T07:47:33.050Z,100768.06
2023-01-28T07:48:36.070Z,100768.09
2023-01-28T07:49:39.843Z,100776.75
2023-01-28T07:50:42.123Z,100773.28
2023-01-28T07:51:46.592Z,100781.03
2023-01-28T07:52:48.459Z,100768.97
2023-01-28T07:53:50.408Z,100751.69
2023-01-28T07:54:52.326Z,100778.47
2023-01-28T07:56:00.740Z,100775.00
2023-01-28T07:57:02.720Z,100777.59
2023-01-28T07:58:06.980Z,100775.00
2023-01-28T07:59:08.923Z,100785.38
2023-01-28T08:00:11.477Z,100774.19
2023-01-28T08:01:14.474Z,100786.25
2023-01-28T08:02:17.746Z,100779.38
2023-01-28T08:03:19.877Z,100783.75
2023-01-28T08:04:22.162Z,100788.03
2023-01-28T08:05:27.355Z,100782.88
2023-01-28T08:06:29.653Z,100779.41
2023-01-28T08:07:31.422Z,100781.13
2023-01-28T08:08:33.142Z,100783.75
2023-01-28T08:09:35.032Z,100780.28
2023-01-28T08:10:38.343Z,100782.88
2023-01-28T08:11:40.378Z,100789.78
2023-01-28T08:12:42.443Z,100788.09
2023-01-28T08:13:44.370Z,100794.13
2023-01-28T08:14:46.482Z,100759.59
2023-01-28T08:15:48.531Z,100779.47
2023-01-28T08:16:50.422Z,100787.25
2023-01-28T08:17:56.230Z,100789.84
2023-01-28T08:18:58.721Z,100782.09
2023-01-28T08:20:00.446Z,100788.13
2023-01-28T08:21:02.271Z,100793.28
2023-01-28T08:22:04.045Z,100803.63
2023-01-28T08:23:12.724Z,100784.72
2023-01-28T08:24:14.501Z,100785.59
2023-01-28T08:25:16.651Z,100792.47
2023-01-28T08:26:18.392Z,100791.63
2023-01-28T08:27:20.208Z,100789.03
2023-01-28T08:28:22.597Z,100795.97
2023-01-28T08:29:24.551Z,100803.75
2023-01-28T08:30:26.668Z,100791.66
2023-01-28T08:31:29.641Z,100801.19
2023-01-28T08:32:31.584Z,100805.53
2023-01-28T08:33:33.285Z,100806.38
2023-01-28T08:34:35.318Z,100824.47
2023-01-28T08:35:37.602Z,100804.66
2023-01-28T08:36:39.493Z,100805.50
2023-01-28T08:37:41.267Z,100798.63
2023-01-28T08:38:43.595Z,100801.25
2023-01-28T08:39:46.541Z,100801.22
2023-01-28T08:40:50.690Z,100796.94
2023-01-28T08:41:52.404Z,100739.97
2023-01-28T08:42:55.147Z,100811.56
2023-01-28T08:43:57.536Z,100804.69
2023-01-28T08:44:59.575Z,100808.16
2023-01-28T08:46:01.404Z,100811.59
2023-01-28T08:47:03.131Z,100777.09
2023-01-28T08:48:07.970Z,100818.47
2023-01-28T08:49:09.785Z,100804.72
2023-01-28T08:50:11.686Z,100807.28
2023-01-28T08:51:13.409Z,100803.00
2023-01-28T08:52:15.214Z,100809.91
2023-01-28T08:53:19.626Z,100808.19
2023-01-28T08:54:21.874Z,100815.09
2023-01-28T08:55:24.494Z,100809.06
2023-01-28T08:56:26.488Z,100809.03
2023-01-28T08:57:28.328Z,100815.09
2023-01-28T08:58:30.106Z,100819.41
2023-01-28T08:59:32.061Z,100811.63
2023-01-28T09:00:35.740Z,100805.59
2023-01-28T09:01:37.982Z,100817.66
2023-01-28T09:02:39.956Z,100811.63
2023-01-28T09:03:41.851Z,100764.19
2023-01-28T09:04:43.776Z,100812.53
2023-01-28T09:05:45.759Z,100822.00
2023-01-28T09:06:47.552Z,100821.13
2023-01-28T09:07:50.635Z,100824.56
2023-01-28T09:08:52.442Z,100815.94
2023-01-28T09:09:54.397Z,100824.56
2023-01-28T09:10:57.712Z,100820.22
2023-01-28T09:11:59.656Z,100825.38
2023-01-28T09:13:13.429Z,100819.34
2023-01-28T09:14:15.142Z,100824.50
2023-01-28T09:15:18.134Z,100803.78
2023-01-28T09:16:22.459Z,100764.06
2023-01-28T09:17:24.661Z,100824.50
2023-01-28T09:18:29.927Z,100829.66
2023-01-28T09:19:32.929Z,100811.56
2023-01-28T09:20:34.896Z,100819.31
2023-01-28T09:21:39.414Z,100827.06
2023-01-28T09:22:41.706Z,100846.84
2023-01-28T09:23:43.661Z,100839.06
2023-01-28T09:24:45.487Z,100827.88
2023-01-28T09:25:47.116Z,100834.75
2023-01-28T09:26:49.596Z,100832.16
2023-01-28T09:27:51.405Z,100839.03
2023-01-28T09:28:53.344Z,100836.47
2023-01-28T09:29:54.994Z,100835.59
2023-01-28T09:31:09.140Z,100839.06
2023-01-28T09:32:10.991Z,100839.91
2023-01-28T09:33:12.757Z,100834.78
2023-01-28T09:34:14.762Z,100836.53
2023-01-28T09:35:18.028Z,100833.06
2023-01-28T09:36:21.144Z,100814.94
2023-01-28T09:37:22.841Z,100834.81
2023-01-28T09:38:24.562Z,100850.38
2023-01-28T09:39:28.570Z,100856.38
2023-01-28T09:40:36.034Z,100849.50
2023-01-28T09:42:15.965Z,100848.69
2023-01-28T09:43:27.160Z,100850.38
2023-01-28T09:44:49.661Z,100850.38
2023-01-28T09:45:55.623Z,100852.97
2023-01-28T09:47:05.840Z,100856.47
2023-01-28T09:48:14.863Z,100847.84
2023-01-28T09:49:32.720Z,100856.44
2023-01-28T09:50:40.824Z,100856.44
2023-01-28T09:51:47.973Z,100855.56
2023-01-28T09:52:53.513Z,100853.00
2023-01-28T09:54:00.640Z,100862.47
2023-01-28T09:55:33.997Z,100859.88
2023-01-28T09:56:46.312Z,100858.16
2023-01-28T09:57:52.644Z,100854.72
2023-01-28T09:58:55.155Z,100857.28
2023-01-28T09:59:57.664Z,100838.28
2023-01-28T10:01:41.265Z,100859.00
2023-01-28T10:02:45.839Z,100859.00
2023-01-28T10:04:12.220Z,100858.97
2023-01-28T10:05:33.917Z,100862.41
2023-01-28T10:06:57.485Z,100852.09
2023-01-28T10:08:18.334Z,100856.44
2023-01-28T10:09:48.911Z,100847.81
2023-01-28T10:11:17.043Z,100851.25
2023-01-28T10:12:37.925Z,100858.16
2023-01-28T10:13:50.777Z,100860.75
2023-01-28T10:14:58.995Z,100862.44
2023-01-28T10:16:22.945Z,100857.28
2023-01-28T10:17:37.178Z,100846.94
2023-01-28T10:18:54.892Z,100846.94
2023-01-28T10:20:22.873Z,100844.34
2023-01-28T10:21:34.671Z,100845.25
2023-01-28T10:22:44.608Z,100847.00
2023-01-28T10:23:49.109Z,100864.22
2023-01-28T10:25:03.793Z,100845.28
2023-01-28T10:26:17.136Z,100850.44
2023-01-28T10:27:24.372Z,100850.41
2023-01-28T10:28:29.599Z,100846.13
2023-01-28T10:29:35.064Z,100865.09
2023-01-28T10:30:40.760Z,100843.50
2023-01-28T10:31:52.232Z,100843.47
2023-01-28T10:32:57.079Z,100843.47
2023-01-28T10:33:59.676Z,100840.91
2023-01-28T10:35:03.121Z,100828.81
2023-01-28T10:36:05.305Z,100840.91
2023-01-28T10:37:09.757Z,100834.00
2023-01-28T10:38:16.289Z,100833.16
2023-01-28T10:39:21.865Z,100834.00
2023-01-28T10:40:23.594Z,100840.06
2023-01-28T10:41:26.888Z,100834.03
2023-01-28T10:42:36.562Z,100834.91
2023-01-28T10:43:41.886Z,100840.91
2023-01-28T10:44:47.479Z,100842.66
2023-01-28T10:45:59.797Z,100840.91
2023-01-28T10:47:14.632Z,100785.66
2023-01-28T10:48:30.370Z,100840.03
2023-01-28T10:49:39.478Z,100842.59
2023-01-28T10:51:01.947Z,100838.28
2023-01-28T10:52:11.309Z,100867.59
2023-01-28T10:53:12.971Z,100847.78
2023-01-28T10:54:22.266Z,100841.75
2023-01-28T10:55:44.815Z,100833.97
2023-01-28T10:56:49.340Z,100854.69
2023-01-28T10:57:51.856Z,100846.06
2023-01-28T10:59:19.374Z,100848.66
2023-01-28T11:00:25.784Z,100848.66
2023-01-28T11:01:50.994Z,100797.75
2023-01-28T11:02:55.176Z,100802.91
2023-01-28T11:03:58.745Z,100844.34
2023-01-28T11:05:27.832Z,100846.94
2023-01-28T11:06:30.283Z,100852.09
2023-01-28T11:07:34.635Z,100845.22
2023-01-28T11:08:44.491Z,100851.25
2023-01-28T11:11:15.242Z,100854.69
2023-01-28T11:12:26.631Z,100850.38
2023-01-28T11:13:30.447Z,100853.81
2023-01-28T11:14:32.207Z,100852.09
2023-01-28T11:15:34.209Z,100808.94
2023-01-28T11:16:40.262Z,100852.09
2023-01-28T11:17:57.735Z,100826.16
2023-01-28T11:19:08.159Z,100757.13
2023-01-28T11:20:21.039Z,100842.59
2023-01-28T11:21:25.572Z,100725.19
2023-01-28T11:22:30.211Z,100852.97
2023-01-28T11:23:35.977Z,100819.28
2023-01-28T11:24:37.669Z,100678.59
2023-01-28T11:25:39.518Z,100735.44
2023-01-28T11:26:45.779Z,100852.00
2023-01-28T11:27:52.344Z,100827.84
2023-01-28T11:28:55.106Z,100718.28
2023-01-28T11:30:03.562Z,100848.59
2023-01-28T11:31:05.656Z,100726.91
2023-01-28T11:32:17.901Z,100797.63
2023-01-28T11:33:28.903Z,100868.25
2023-01-28T11:34:34.859Z,100822.72
2023-01-28T11:35:36.560Z,100779.50
2023-01-28T11:36:38.091Z,100852.84
2023-01-28T11:37:48.586Z,100836.47
2023-01-28T11:38:57.242Z,100861.53
2023-01-28T11:40:21.151Z,100823.44
2023-01-28T11:41:29.997Z,100859.84
2023-01-28T11:42:32.801Z,100860.66
2023-01-28T11:43:34.590Z,100858.00
2023-01-28T11:44:36.354Z,100810.50
2023-01-28T11:45:49.773Z,100857.28
2023-01-28T11:47:32.788Z,100852.97
2023-01-28T11:48:49.487Z,100779.56
2023-01-28T11:50:00.189Z,100850.34
2023-01-28T11:51:27.544Z,100819.22
2023-01-28T11:53:05.884Z,100861.56
2023-01-28T11:54:24.291Z,100854.66
2023-01-28T11:55:39.331Z,100760.53
2023-01-28T11:57:17.687Z,100820.97
2023-01-28T11:58:40.094Z,100855.50
2023-01-28T11:59:41.683Z,100854.66
2023-01-28T12:00:51.963Z,100856.41
2023-01-28T12:02:21.502Z,100862.41
2023-01-28T12:03:48.283Z,100817.50
2023-01-28T12:05:16.045Z,100846.91
2023-01-28T12:06:26.986Z,100838.28
2023-01-28T12:07:43.179Z,100821.88
2023-01-28T12:09:07.530Z,100856.41
2023-01-28T12:10:44.503Z,100863.31
2023-01-28T12:12:12.085Z,100841.75
2023-01-28T12:13:45.096Z,100850.44
2023-01-28T12:15:01.998Z,100852.19
2023-01-28T12:16:22.435Z,100863.38
2023-01-28T12:17:26.611Z,100859.94
2023-01-28T12:19:08.163Z,100859.97
2023-01-28T12:20:36.157Z,100889.25
2023-01-28T12:22:01.849Z,100860.84
2023-01-28T12:23:12.345Z,100855.66
2023-01-28T12:24:26.307Z,100811.59
2023-01-28T12:25:48.015Z,100853.91
2023-01-28T12:26:57.060Z,100855.63
2023-01-28T12:28:36.352Z,100855.63
2023-01-28T12:29:43.785Z,100847.84
2023-01-28T12:31:07.091Z,100719.09
2023-01-28T12:32:31.753Z,100848.69
2023-01-28T12:33:46.085Z,100773.50
2023-01-28T12:35:06.973Z,100851.22
2023-01-28T12:36:30.556Z,100764.06
2023-01-28T12:37:52.824Z,100739.81
2023-01-28T12:39:33.272Z,100846.94
2023-01-28T12:40:44.158Z,100850.34
2023-01-28T12:42:04.433Z,100845.06
2023-01-28T12:43:21.571Z,100838.28
2023-01-28T12:44:34.946Z,100847.75